createdAt,value
2023-10-12T00:01:34.931Z,15
2023-10-12T00:29:45.759Z,17
2023-10-12T00:58:01.800Z,18
2023-10-12T01:26:22.927Z,18
2023-10-12T01:54:47.420Z,18
2023-10-12T02:23:04.344Z,18
2023-10-12T02:51:24.252Z,19
2023-10-12T03:19:38.914Z,19
2023-10-12T03:48:07.749Z,18
2023-10-12T04:16:23.534Z,19
2023-10-12T04:44:43.833Z,18
2023-10-12T05:13:03.992Z,20
2023-10-12T05:41:28.791Z,20
2023-10-12T06:09:50.402Z,19
2023-10-12T06:38:16.942Z,18
2023-10-12T07:06:54.934Z,18
2023-10-12T07:35:22.853Z,18
2023-10-12T08:04:00.148Z,14
2023-10-12T08:32:12.358Z,15
2023-10-12T09:00:37.379Z,17
2023-10-12T09:29:03.881Z,15
2023-10-12T09:57:21.290Z,14
2023-10-12T10:25:48.107Z,14
2023-10-12T10:54:14.345Z,14
2023-10-12T11:22:49.368Z,15
2023-10-12T11:51:30.298Z,13
2023-10-12T12:20:00.375Z,14
2023-10-12T12:48:16.183Z,13
2023-10-12T13:16:43.586Z,13
2023-10-12T13:44:58.080Z,14
2023-10-12T14:13:24.480Z,13
2023-10-12T14:41:47.711Z,11
2023-10-12T15:10:07.662Z,11
2023-10-12T15:38:30.132Z,13
2023-10-12T16:06:55.000Z,14
2023-10-12T16:35:17.110Z,14
2023-10-12T17:03:37.796Z,17
2023-10-12T17:31:57.822Z,14
2023-10-12T18:00:25.949Z,17
2023-10-12T18:28:42.249Z,14
2023-10-12T18:57:08.834Z,17
2023-10-12T19:25:35.319Z,18
2023-10-12T19:53:45.422Z,14
2023-10-12T20:22:03.083Z,17
2023-10-12T20:50:19.925Z,14
2023-10-12T21:18:48.339Z,15
2023-10-12T21:47:04.514Z,14
2023-10-12T22:15:26.997Z,13
2023-10-12T22:43:47.876Z,14
2023-10-12T23:12:05.929Z,13
2023-10-12T23:40:29.506Z,13
